.
WxDataArchive / Data Records for 2015-11-17
2015-11-16 November 2015 2015-11-18

Data Records for Tuesday, 17 November 2015

Time	Temp	Chill	HIndex	Humid	Dewpt	 Wind 	HiWind	WindDir	Rain 	Barom
-----	----	-----	------	-----	-----	------	------	-------	-----	-----
00:00	48.8	48.8	48.8	59	35.1	0	0	---	0.00	30.144 
00:05	48.8	48.8	48.8	59	35.1	0	1	90	0.00	30.144 
00:10	48.8	48.8	48.8	60	35.5	0	1	90	0.00	30.144 
00:15	48.8	48.8	48.8	60	35.5	0	0	---	0.00	30.146 
00:20	48.8	48.8	48.8	60	35.5	0	1	90	0.00	30.146 
00:25	48.8	48.8	48.8	61	36.0	0	0	---	0.00	30.146 
00:30	48.8	48.8	48.8	60	35.5	0	1	90	0.00	30.147 
00:35	48.8	48.8	48.8	60	35.5	0	1	90	0.00	30.147 
00:40	48.8	48.8	48.8	62	36.4	0	1	90	0.00	30.147 
00:45	48.9	48.9	48.9	62	36.5	0	5	90	0.00	30.142 
00:50	49.1	49.1	49.1	62	36.6	0	2	90	0.00	30.142 
00:55	49.2	49.2	49.2	62	36.7	0	3	112	0.00	30.142 
01:00	49.4	49.4	49.4	63	37.3	0	2	112	0.00	30.141 
01:05	49.4	49.4	49.4	63	37.3	0	3	112	0.00	30.141 
01:10	49.4	49.4	49.4	64	37.7	0	3	112	0.00	30.141 
01:15	49.4	49.4	49.4	64	37.7	0	1	112	0.00	30.133 
01:20	49.2	49.2	49.2	64	37.5	0	1	112	0.00	30.133 
01:25	49.1	49.1	49.1	65	37.8	0	0	---	0.00	30.133 
01:30	49.1	49.1	49.1	65	37.8	0	1	112	0.00	30.127 
01:35	48.9	48.9	48.9	66	38.0	0	1	112	0.00	30.127 
01:40	48.9	48.9	48.9	67	38.4	0	1	112	0.00	30.127 
01:45	48.8	48.8	48.8	67	38.3	0	1	112	0.00	30.123 
01:50	48.5	48.5	48.5	68	38.4	0	0	---	0.00	30.123 
01:55	48.5	48.5	48.5	68	38.4	0	1	112	0.00	30.123 
02:00	48.3	48.3	48.3	69	38.6	0	1	112	0.00	30.125 
02:05	48.2	48.2	48.2	69	38.5	0	1	112	0.00	30.125 
02:10	48.2	48.2	48.2	69	38.5	0	1	112	0.00	30.125 
02:15	48.0	48.0	48.0	69	38.3	0	1	112	0.00	30.132 
02:20	48.0	48.0	48.0	70	38.7	0	1	112	0.00	30.132 
02:25	47.9	47.9	47.9	70	38.6	0	1	112	0.00	30.132 
02:30	47.9	47.9	47.9	71	39.0	0	0	---	0.00	30.139 
02:35	47.7	47.7	47.7	71	38.8	0	1	112	0.00	30.139 
02:40	47.7	47.7	47.7	72	39.1	0	1	112	0.00	30.139 
02:45	47.6	47.6	47.6	72	39.0	0	1	112	0.00	30.139 
02:50	47.6	47.6	47.6	73	39.4	0	3	112	0.00	30.139 
02:55	47.6	47.6	47.6	73	39.4	1	4	112	0.00	30.139 
03:00	47.6	47.6	47.6	73	39.4	0	2	112	0.00	30.133 
03:05	47.4	47.4	47.4	72	38.8	1	2	112	0.00	30.133 
03:10	47.6	47.6	47.6	72	39.0	0	3	112	0.00	30.133 
03:15	47.4	47.4	47.4	72	38.8	0	2	112	0.00	30.135 
03:20	47.4	47.4	47.4	72	38.8	0	2	112	0.00	30.135 
03:25	47.4	47.4	47.4	72	38.8	0	1	112	0.00	30.135 
03:30	47.4	47.4	47.4	73	39.2	0	1	112	0.00	30.130 
03:35	47.4	47.4	47.4	73	39.2	0	1	112	0.00	30.130 
03:40	47.4	47.4	47.4	73	39.2	0	1	112	0.00	30.130 
03:45	47.3	47.3	47.3	73	39.1	0	2	112	0.00	30.128 
03:50	47.3	47.3	47.3	73	39.1	0	2	112	0.00	30.128 
03:55	47.3	47.3	47.3	73	39.1	1	3	112	0.00	30.128 
04:00	47.3	47.3	47.3	73	39.1	1	3	112	0.00	30.116 
04:05	47.3	47.3	47.3	74	39.4	1	3	112	0.00	30.116 
04:10	47.3	47.3	47.3	74	39.4	0	2	112	0.00	30.116 
04:15	47.3	47.3	47.3	74	39.4	0	3	112	0.00	30.120 
04:20	47.4	47.4	47.4	74	39.5	0	2	112	0.00	30.120 
04:25	47.4	47.4	47.4	74	39.5	0	2	112	0.00	30.120 
04:30	47.4	47.4	47.4	74	39.5	0	2	112	0.00	30.122 
04:35	47.4	47.4	47.4	74	39.5	0	2	112	0.00	30.122 
04:40	47.4	47.4	47.4	74	39.5	1	3	112	0.00	30.122 
04:45	47.6	47.6	47.6	74	39.7	0	2	112	0.00	30.125 
04:50	47.6	47.6	47.6	74	39.7	0	2	112	0.00	30.125 
04:55	47.7	47.7	47.7	73	39.5	0	3	112	0.00	30.125 
05:00	47.7	47.7	47.7	73	39.5	1	3	112	0.00	30.126 
05:05	47.9	47.9	47.9	73	39.7	0	2	112	0.00	30.126 
05:10	47.9	47.9	47.9	73	39.7	0	3	112	0.00	30.126 
05:15	47.9	47.9	47.9	73	39.7	0	3	112	0.00	30.129 
05:20	48.0	48.0	48.0	73	39.8	1	4	112	0.00	30.129 
05:25	48.0	48.0	48.0	73	39.8	1	4	112	0.00	30.129 
05:30	48.0	48.0	48.0	73	39.8	1	3	112	0.00	30.129 
05:35	48.0	48.0	48.0	73	39.8	1	3	112	0.00	30.129 
05:40	48.0	48.0	48.0	73	39.8	1	3	112	0.00	30.129 
05:45	48.0	48.0	48.0	73	39.8	0	3	112	0.00	30.124 
05:50	48.0	48.0	48.0	73	39.8	0	2	112	0.00	30.124 
05:55	48.0	48.0	48.0	73	39.8	1	2	112	0.00	30.124 
06:00	47.9	47.9	47.9	73	39.7	0	2	112	0.00	30.124 
06:05	47.9	47.9	47.9	73	39.7	0	2	112	0.00	30.124 
06:10	47.7	47.7	47.7	73	39.5	0	1	112	0.00	30.124 
06:15	47.6	47.6	47.6	73	39.4	0	1	112	0.00	30.127 
06:20	47.6	47.6	47.6	73	39.4	0	1	112	0.00	30.127 
06:25	47.6	47.6	47.6	73	39.4	0	2	112	0.00	30.127 
06:30	47.6	47.6	47.6	73	39.4	0	1	112	0.00	30.129 
06:35	47.7	47.7	47.7	73	39.5	0	2	112	0.00	30.129 
06:40	47.7	47.7	47.7	72	39.1	1	2	112	0.00	30.129 
06:45	47.9	47.9	47.9	72	39.3	0	2	112	0.00	30.129 
06:50	48.0	48.0	48.0	72	39.4	0	2	112	0.00	30.129 
06:55	48.0	48.0	48.0	72	39.4	0	2	112	0.00	30.129 
07:00	48.2	48.2	48.2	72	39.6	0	1	112	0.00	30.129 
07:05	48.2	48.2	48.2	72	39.6	0	1	112	0.00	30.129 
07:10	48.2	48.2	48.2	72	39.6	0	1	112	0.00	30.129 
07:15	48.2	48.2	48.2	72	39.6	0	1	112	0.00	30.131 
07:20	48.2	48.2	48.2	72	39.6	0	2	112	0.00	30.131 
07:25	48.2	48.2	48.2	72	39.6	0	2	112	0.00	30.131 
07:30	48.2	48.2	48.2	72	39.6	0	3	112	0.00	30.125 
07:35	48.2	48.2	48.2	72	39.6	0	2	112	0.00	30.125 
07:40	48.2	48.2	48.2	72	39.6	0	2	112	0.00	30.125 
07:45	48.2	48.2	48.2	73	40.0	0	2	112	0.00	30.120 
07:50	48.0	48.0	48.0	73	39.8	0	2	112	0.00	30.120 
07:55	48.0	48.0	48.0	73	39.8	0	2	112	0.00	30.120 
08:00	48.0	48.0	48.0	73	39.8	0	3	112	0.00	30.113 
08:05	48.0	48.0	48.0	73	39.8	1	5	112	0.00	30.113 
08:10	48.2	48.2	48.2	73	40.0	0	3	90	0.00	30.113 
08:15	48.2	48.2	48.2	73	40.0	1	3	90	0.00	30.114 
08:20	48.3	48.3	48.3	73	40.1	0	2	90	0.00	30.114 
08:25	48.3	48.3	48.3	74	40.4	0	2	90	0.00	30.114 
08:30	48.3	48.3	48.3	74	40.4	1	2	90	0.00	30.113 
08:35	48.3	48.3	48.3	74	40.4	0	3	90	0.00	30.113 
08:40	48.3	48.3	48.3	74	40.4	1	3	90	0.00	30.113 
08:45	48.3	48.3	48.3	74	40.4	1	3	90	0.00	30.114 
08:50	48.5	48.5	48.5	74	40.6	0	2	90	0.00	30.114 
08:55	48.8	48.8	48.8	74	40.9	1	3	90	0.00	30.114 
09:00	49.1	49.1	49.1	73	40.8	1	2	90	0.00	30.110 
09:05	49.4	49.4	49.4	73	41.1	1	5	112	0.00	30.110 
09:10	49.6	49.6	49.6	71	40.6	1	4	90	0.00	30.110 
09:15	50.1	50.1	50.1	70	40.7	2	4	90	0.00	30.108 
09:20	50.4	50.4	50.4	70	41.0	2	4	90	0.00	30.108 
09:25	50.5	50.5	50.5	69	40.7	1	4	90	0.00	30.108 
09:30	50.7	50.7	50.7	69	40.9	1	4	90	0.00	30.100 
09:35	51.0	51.0	51.0	68	40.8	2	5	90	0.00	30.100 
09:40	51.1	51.1	51.1	68	40.9	1	5	90	0.00	30.100 
09:45	51.4	51.4	51.4	67	40.8	1	6	90	0.00	30.098 
09:50	51.7	51.7	51.7	66	40.7	2	4	90	0.00	30.098 
09:55	52.0	52.0	52.0	65	40.6	2	6	112	0.00	30.098 
10:00	52.2	52.2	52.2	64	40.4	1	3	135	0.00	30.095 
10:05	52.5	52.5	52.5	64	40.7	1	3	135	0.00	30.095 
10:10	52.8	52.8	52.8	62	40.1	1	5	112	0.00	30.095 
10:15	52.9	52.9	52.9	62	40.2	1	5	90	0.00	30.091 
10:20	53.2	53.2	53.2	62	40.5	0	2	90	0.00	30.091 
10:25	53.3	53.3	53.3	60	39.8	1	4	112	0.00	30.091 
10:30	53.6	53.6	53.6	59	39.6	1	4	112	0.00	30.089 
10:35	54.1	54.1	54.1	58	39.7	1	5	112	0.00	30.089 
10:40	54.5	54.5	54.5	56	39.1	2	5	112	0.00	30.089 
10:45	55.0	55.0	55.0	56	39.6	1	3	112	0.00	30.087 
10:50	55.3	55.3	55.3	55	39.4	1	4	112	0.00	30.087 
10:55	55.7	55.7	55.7	55	39.8	1	4	112	0.00	30.087 
11:00	56.0	56.0	56.0	52	38.6	2	5	112	0.00	30.080 
11:05	56.3	56.3	56.3	52	38.9	1	6	112	0.00	30.080 
11:10	56.7	56.7	56.7	51	38.8	1	4	68	0.00	30.080 
11:15	57.2	57.2	57.2	50	38.7	2	5	112	0.00	30.078 
11:20	57.5	57.5	57.5	49	38.5	2	7	90	0.00	30.078 
11:25	57.5	57.5	57.5	49	38.5	1	6	112	0.00	30.078 
11:30	57.5	57.5	57.5	50	39.0	2	6	90	0.00	30.077 
11:35	57.6	57.6	57.6	49	38.6	2	6	90	0.00	30.077 
11:40	57.6	57.6	57.6	50	39.1	1	5	90	0.00	30.077 
11:45	57.6	57.6	57.6	50	39.1	2	7	90	0.00	30.067 
11:50	57.6	57.6	57.6	50	39.1	2	6	68	0.00	30.067 
11:55	57.8	57.8	57.8	50	39.3	2	7	90	0.00	30.067 
12:00	58.1	58.1	58.1	51	40.1	1	5	90	0.00	30.056 
12:05	58.4	58.4	58.4	51	40.3	2	6	90	0.00	30.056 
12:10	58.9	58.9	58.9	51	40.8	1	5	112	0.00	30.056 
12:15	59.3	59.3	59.3	50	40.7	2	5	112	0.00	30.044 
12:20	59.8	59.8	59.8	49	40.6	2	7	112	0.00	30.044 
12:25	59.6	59.6	59.6	49	40.4	2	6	112	0.00	30.044 
12:30	59.3	59.3	59.3	50	40.7	1	5	112	0.00	30.031 
12:35	59.3	59.3	59.3	50	40.7	1	5	90	0.00	30.031 
12:40	59.5	59.5	59.5	49	40.3	2	6	112	0.00	30.031 
12:45	59.8	59.8	59.8	49	40.6	2	11	68	0.00	30.023 
12:50	59.6	59.6	59.6	49	40.4	2	6	90	0.00	30.023 
12:55	59.5	59.5	59.5	50	40.8	2	6	112	0.00	30.023 
13:00	59.3	59.3	59.3	50	40.7	1	5	90	0.00	30.017 
13:05	59.5	59.5	59.5	50	40.8	1	5	112	0.00	30.017 
13:10	59.5	59.5	59.5	50	40.8	2	5	112	0.00	30.017 
13:15	59.5	59.5	59.5	50	40.8	1	5	112	0.00	30.016 
13:20	59.5	59.5	59.5	51	41.4	1	4	90	0.00	30.016 
13:25	59.6	59.6	59.6	50	40.9	1	4	90	0.00	30.016 
13:30	59.6	59.6	59.6	50	40.9	1	3	68	0.00	30.015 
13:35	59.6	59.6	59.6	50	40.9	1	5	112	0.00	30.015 
13:40	59.6	59.6	59.6	50	40.9	1	6	90	0.00	30.015 
13:45	59.6	59.6	59.6	50	40.9	1	6	112	0.00	30.005 
13:50	59.6	59.6	59.6	51	41.4	2	6	112	0.00	30.005 
13:55	59.5	59.5	59.5	51	41.4	1	5	112	0.00	30.005 
14:00	59.5	59.5	59.5	51	41.4	1	5	68	0.00	29.999 
14:05	59.5	59.5	59.5	50	40.8	1	3	90	0.00	29.999 
14:10	59.5	59.5	59.5	50	40.8	2	6	112	0.00	29.999 
14:15	59.5	59.5	59.5	50	40.8	2	6	112	0.00	29.999 
14:20	59.6	59.6	59.6	50	40.9	1	4	112	0.00	29.999 
14:25	59.6	59.6	59.6	50	40.9	1	6	90	0.00	29.999 
14:30	59.6	59.6	59.6	51	41.4	2	6	112	0.00	29.992 
14:35	59.8	59.8	59.8	51	41.6	1	3	112	0.00	29.992 
14:40	59.9	59.9	59.9	52	42.2	1	4	68	0.00	29.992 
14:45	60.1	60.1	60.1	52	42.4	0	3	112	0.00	29.990 
14:50	60.4	60.4	60.4	53	43.2	1	3	90	0.00	29.990 
14:55	60.5	60.5	60.5	53	43.3	1	6	112	0.00	29.990 
15:00	60.5	60.5	60.5	53	43.3	1	3	158	0.00	29.984 
15:05	60.7	60.7	60.7	54	44.0	1	3	90	0.00	29.984 
15:10	60.7	60.7	60.7	53	43.5	1	4	90	0.00	29.984 
15:15	60.9	60.9	60.9	54	44.1	1	3	112	0.00	29.982 
15:20	60.9	60.9	60.9	53	43.7	0	2	112	0.00	29.982 
15:25	61.0	61.0	61.0	54	44.2	1	5	90	0.00	29.982 
15:30	61.0	61.0	61.0	54	44.2	1	3	68	0.00	29.975 
15:35	61.0	61.0	61.0	54	44.2	1	3	90	0.00	29.975 
15:40	61.0	61.0	61.0	54	44.2	1	5	90	0.00	29.975 
15:45	61.0	61.0	61.0	54	44.2	1	6	90	0.00	29.979 
15:50	61.2	61.2	61.2	54	44.4	1	5	112	0.00	29.979 
15:55	61.2	61.2	61.2	54	44.4	0	2	68	0.00	29.979 
16:00	61.2	61.2	61.2	55	44.9	1	4	135	0.00	29.979 
16:05	61.3	61.3	61.3	57	45.9	1	4	90	0.00	29.979 
16:10	61.2	61.2	61.2	58	46.3	1	6	90	0.00	29.979 
16:15	60.9	60.9	60.9	60	46.9	1	4	90	0.00	29.970 
16:20	60.7	60.7	60.7	62	47.6	1	4	90	0.00	29.970 
16:25	60.4	60.4	60.4	62	47.3	1	5	112	0.00	29.970 
16:30	60.2	60.2	60.2	62	47.1	1	5	90	0.00	29.967 
16:35	60.1	60.1	60.1	64	47.9	1	4	90	0.00	29.967 
16:40	59.9	59.9	59.9	65	48.1	1	3	90	0.00	29.967 
16:45	59.8	59.8	59.8	65	48.0	0	2	180	0.00	29.968 
16:50	59.6	59.6	59.6	66	48.2	0	4	90	0.00	29.968 
16:55	59.5	59.5	59.5	66	48.1	0	2	90	0.00	29.968 
17:00	59.5	59.5	59.5	67	48.5	0	2	90	0.00	29.964 
17:05	59.3	59.3	59.3	67	48.3	0	2	90	0.00	29.964 
17:10	59.3	59.3	59.3	67	48.3	0	1	90	0.00	29.964 
17:15	59.3	59.3	59.3	67	48.3	0	2	90	0.00	29.966 
17:20	59.3	59.3	59.3	67	48.3	0	3	90	0.00	29.966 
17:25	59.3	59.3	59.3	67	48.3	0	1	90	0.00	29.966 
17:30	59.3	59.3	59.3	67	48.3	0	1	90	0.00	29.966 
17:35	59.3	59.3	59.3	65	47.5	1	4	90	0.00	29.966 
17:40	59.6	59.6	59.6	65	47.8	1	7	112	0.00	29.966 
17:45	59.8	59.8	59.8	64	47.6	0	3	112	0.00	29.956 
17:50	59.8	59.8	59.8	64	47.6	0	2	112	0.00	29.956 
17:55	59.6	59.6	59.6	64	47.4	0	4	112	0.00	29.956 
18:00	59.6	59.6	59.6	62	46.6	1	4	135	0.00	29.961 
18:05	59.6	59.6	59.6	61	46.1	1	4	135	0.00	29.961 
18:10	59.5	59.5	59.5	58	44.7	3	5	135	0.00	29.961 
18:15	59.3	59.3	59.3	56	43.6	2	6	112	0.00	29.962 
18:20	59.3	59.3	59.3	54	42.7	2	7	112	0.00	29.962 
18:25	59.3	59.3	59.3	54	42.7	2	6	112	0.00	29.962 
18:30	59.2	59.2	59.2	54	42.6	2	5	112	0.00	29.957 
18:35	59.0	59.0	59.0	54	42.4	3	7	112	0.00	29.957 
18:40	58.9	58.9	58.9	53	41.8	2	6	112	0.00	29.957 
18:45	58.6	58.6	58.6	52	41.0	3	7	112	0.00	29.953 
18:50	58.4	58.4	58.4	51	40.3	3	6	112	0.00	29.953 
18:55	58.3	58.3	58.3	50	39.7	3	7	90	0.00	29.953 
19:00	58.1	58.1	58.1	49	39.0	3	7	112	0.00	29.950 
19:05	58.0	58.0	58.0	48	38.4	3	7	90	0.00	29.950 
19:10	57.8	57.8	57.8	47	37.7	4	12	90	0.00	29.950 
19:15	57.6	57.6	57.6	45	36.4	3	10	112	0.00	29.950 
19:20	57.5	57.5	57.5	46	36.9	1	5	112	0.00	29.950 
19:25	57.3	57.3	57.3	45	36.1	1	6	68	0.00	29.950 
19:30	57.3	57.3	57.3	45	36.1	1	3	90	0.00	29.953 
19:35	57.2	57.2	57.2	45	36.1	1	4	112	0.00	29.953 
19:40	57.0	57.0	57.0	45	35.9	1	4	112	0.00	29.953 
19:45	56.9	56.9	56.9	44	35.2	1	3	90	0.00	29.951 
19:50	56.9	56.9	56.9	44	35.2	1	4	112	0.00	29.951 
19:55	56.9	56.9	56.9	43	34.6	1	5	112	0.00	29.951 
20:00	56.9	56.9	56.9	43	34.6	2	6	112	0.00	29.945 
20:05	56.9	56.9	56.9	43	34.6	1	3	112	0.00	29.945 
20:10	56.9	56.9	56.9	42	34.0	1	4	248	0.00	29.945 
20:15	56.9	56.9	56.9	41	33.4	1	4	90	0.00	29.941 
20:20	57.0	57.0	57.0	41	33.5	2	7	90	0.00	29.941 
20:25	57.2	57.2	57.2	40	33.1	2	5	90	0.00	29.941 
20:30	57.3	57.3	57.3	40	33.2	2	9	112	0.00	29.940 
20:35	57.3	57.3	57.3	40	33.2	1	5	68	0.00	29.940 
20:40	57.5	57.5	57.5	39	32.7	2	4	90	0.00	29.940 
20:45	57.5	57.5	57.5	40	33.4	1	5	112	0.00	29.936 
20:50	57.3	57.3	57.3	40	33.2	1	4	90	0.00	29.936 
20:55	57.3	57.3	57.3	40	33.2	2	6	90	0.00	29.936 
21:00	57.2	57.2	57.2	41	33.7	1	7	90	0.00	29.935 
21:05	57.0	57.0	57.0	41	33.5	1	6	90	0.00	29.935 
21:10	57.0	57.0	57.0	41	33.5	1	4	90	0.00	29.935 
21:15	56.9	56.9	56.9	42	34.0	1	4	90	0.00	29.927 
21:20	56.7	56.7	56.7	42	33.9	1	6	112	0.00	29.927 
21:25	56.7	56.7	56.7	42	33.9	1	5	90	0.00	29.927 
21:30	56.9	56.9	56.9	42	34.0	1	10	112	0.00	29.926 
21:35	56.9	56.9	56.9	42	34.0	1	3	112	0.00	29.926 
21:40	56.9	56.9	56.9	42	34.0	1	5	90	0.00	29.926 
21:45	56.9	56.9	56.9	41	33.4	2	5	90	0.00	29.926 
21:50	57.0	57.0	57.0	41	33.5	1	5	90	0.00	29.926 
21:55	57.2	57.2	57.2	40	33.1	2	6	90	0.00	29.926 
22:00	57.3	57.3	57.3	40	33.2	2	6	68	0.00	29.919 
22:05	57.5	57.5	57.5	39	32.7	2	6	90	0.00	29.919 
22:10	57.6	57.6	57.6	39	32.8	2	5	112	0.00	29.919 
22:15	57.8	57.8	57.8	39	33.0	1	6	292	0.00	29.914 
22:20	57.8	57.8	57.8	38	32.4	2	5	90	0.00	29.914 
22:25	58.0	58.0	58.0	38	32.5	2	6	90	0.00	29.914 
22:30	58.1	58.1	58.1	38	32.6	2	5	112	0.00	29.910 
22:35	58.0	58.0	58.0	38	32.5	1	6	90	0.00	29.910 
22:40	58.1	58.1	58.1	38	32.6	2	10	90	0.00	29.910 
22:45	58.1	58.1	58.1	38	32.6	2	7	90	0.00	29.903 
22:50	58.1	58.1	58.1	37	32.0	2	6	90	0.00	29.903 
22:55	58.1	58.1	58.1	37	32.0	2	7	90	0.00	29.903 
23:00	58.1	58.1	58.1	37	32.0	2	6	90	0.00	29.896 
23:05	58.1	58.1	58.1	37	32.0	2	6	90	0.00	29.896 
23:10	58.1	58.1	58.1	37	32.0	2	7	68	0.00	29.896 
23:15	58.1	58.1	58.1	37	32.0	2	4	90	0.00	29.885 
23:20	58.1	58.1	58.1	37	32.0	2	6	90	0.00	29.885 
23:25	58.1	58.1	58.1	37	32.0	1	4	90	0.00	29.885 
23:30	58.1	58.1	58.1	37	32.0	2	6	90	0.00	29.884 
23:35	58.1	58.1	58.1	37	32.0	2	6	112	0.00	29.884 
23:40	58.1	58.1	58.1	37	32.0	2	6	112	0.00	29.884 
23:45	58.1	58.1	58.1	37	32.0	2	4	90	0.00	29.884 
23:50	58.1	58.1	58.1	37	32.0	2	5	112	0.00	29.884 
23:55	58.1	58.1	58.1	37	32.0	2	11	90	0.00	29.884 

CoCoRaHS
IN-AL-39
A2 Web Hosting
Creative Commons License
GoDaddy
search engine by freefind advanced

loaded 2018-11-20 08:34:29 • last modified 2010-11-18 10:43:29
Privacy PolicyDisclaimer
• wx.awcolley.com is powered by PmWiki v.2002016 •
• all content (unless otherwise noted) © 2018 A W Colley